| time (UTC) | temp C | wind direction | speed KPH | gust KPH | rain 1hr cm | rain 24hr cm | rain mn cm | humidity % | barometer mb |
| 20260504050133 | 12 | 5 | 3.2 | 8.0 | 0.00 | 0.00 | 0.00 | 47 | 999.1 |
| 20260504044621 | 11 | 5 | 1.6 | 6.4 | 0.00 | 0.00 | 0.00 | 48 | 999.4 |
| 20260504043030 | 11 | 5 | 1.6 | 4.8 | 0.00 | 0.00 | 0.00 | 49 | 999.7 |
| 20260504041609 | 10 | 5 | 0.0 | 3.2 | 0.00 | 0.00 | 0.00 | 51 | 999.9 |
| 20260504040042 | 10 | 5 | 0.0 | 3.2 | 0.00 | 0.00 | 0.00 | 52 | 1000.3 |
| 20260504034627 | 11 | 5 | 0.0 | 3.2 | 0.00 | 0.00 | 0.00 | 53 | 1000.6 |
| 20260504033044 | 11 | 5 | 0.0 | 1.6 | 0.00 | 0.00 | 0.00 | 52 | 1001.1 |
| 20260504031506 | 11 | 9 | 0.0 | 3.2 | 0.00 | 0.00 | 0.00 | 50 | 1001.3 |
| 20260504030104 | 12 | 5 | 0.0 | 3.2 | 0.00 | 0.00 | 0.00 | 49 | 1001.5 |
| 20260504024535 | 13 | 5 | 0.0 | 3.2 | 0.00 | 0.00 | 0.00 | 45 | 1001.5 |
| 20260504023117 | 13 | 5 | 0.0 | 1.6 | 0.00 | 0.00 | 0.00 | 44 | 1001.6 |
| 20260504021535 | 15 | 5 | 0.0 | 1.6 | 0.00 | 0.00 | 0.00 | 43 | 1001.7 |
| 20260504020003 | 15 | 5 | 0.0 | 1.6 | 0.00 | 0.00 | 0.00 | 40 | 1001.6 |
| 20260504014556 | 16 | 5 | 0.0 | 1.6 | 0.00 | 0.00 | 0.00 | 37 | 1001.6 |
| 20260504013019 | 17 | 5 | 0.0 | 1.6 | 0.00 | 0.00 | 0.00 | 33 | 1001.6 |
| 20260504011609 | 17 | 5 | 0.0 | 1.6 | 0.00 | 0.00 | 0.00 | 31 | 1001.6 |
| 20260504010039 | 17 | 5 | 0.0 | 4.8 | 0.00 | 0.00 | 0.00 | 31 | 1001.6 |
| 20260504004628 | 18 | 5 | 0.0 | 3.2 | 0.00 | 0.00 | 0.00 | 30 | 1001.8 |
| 20260504003047 | 18 | 5 | 1.6 | 4.8 | 0.00 | 0.00 | 0.00 | 30 | 1002.0 |
| 20260504001513 | 18 | 5 | 1.6 | 9.7 | 0.00 | 0.00 | 0.00 | 30 | 1002.1 |
| 20260504000134 | 18 | 5 | 1.6 | 4.8 | 0.00 | 0.00 | 0.00 | 29 | 1002.1 |
| 20260503234529 | 19 | 5 | 1.6 | 6.4 | 0.00 | 0.00 | 0.00 | 27 | 1002.1 |
| 20260503233127 | 19 | 5 | 3.2 | 12.9 | 0.00 | 0.00 | 0.00 | 28 | 1002.2 |
| 20260503231553 | 20 | 5 | 3.2 | 9.7 | 0.00 | 0.00 | 0.00 | 26 | 1002.3 |
| 20260503230015 | 20 | 5 | 3.2 | 14.5 | 0.00 | 0.00 | 0.00 | 28 | 1002.4 |
| 20260503224607 | 20 | 5 | 1.6 | 14.5 | 0.00 | 0.00 | 0.00 | 28 | 1002.4 |
| 20260503223021 | 19 | 360 | 1.6 | 9.7 | 0.00 | 0.00 | 0.00 | 27 | 1002.5 |
| 20260503221619 | 19 | 5 | 6.4 | 14.5 | 0.00 | 0.00 | 0.00 | 26 | 1002.6 |
| 20260503220035 | 19 | 5 | 4.8 | 14.5 | 0.00 | 0.00 | 0.00 | 26 | 1002.7 |
| 20260503214503 | 20 | 5 | 3.2 | 12.9 | 0.00 | 0.00 | 0.00 | 26 | 1002.9 |
| 20260503213057 | 20 | 5 | 3.2 | 16.1 | 0.00 | 0.00 | 0.00 | 25 | 1003.0 |
| 20260503211520 | 20 | 5 | 6.4 | 22.5 | 0.00 | 0.00 | 0.00 | 25 | 1003.1 |
| 20260503210111 | 20 | 5 | 3.2 | 19.3 | 0.00 | 0.00 | 0.00 | 23 | 1003.2 |
| 20260503204608 | 21 | 5 | 4.8 | 14.5 | 0.00 | 0.00 | 0.00 | 23 | 1003.4 |
| 20260503203025 | 21 | 5 | 4.8 | 16.1 | 0.00 | 0.00 | 0.00 | 22 | 1003.4 |
| 20260503201621 | 21 | 5 | 3.2 | 9.7 | 0.00 | 0.00 | 0.00 | 24 | 1003.4 |
| 20260503200041 | 21 | 5 | 3.2 | 14.5 | 0.00 | 0.00 | 0.00 | 23 | 1003.5 |
| 20260503194507 | 21 | 5 | 3.2 | 14.5 | 0.00 | 0.00 | 0.00 | 27 | 1003.6 |
| 20260503193059 | 21 | 5 | 4.8 | 17.7 | 0.00 | 0.00 | 0.00 | 27 | 1003.7 |
| 20260503191534 | 20 | 5 | 4.8 | 20.9 | 0.00 | 0.00 | 0.00 | 30 | 1003.8 |
| 20260503190118 | 20 | 5 | 4.8 | 17.7 | 0.00 | 0.00 | 0.00 | 27 | 1003.9 |
| 20260503184542 | 20 | 5 | 6.4 | 17.7 | 0.00 | 0.00 | 0.00 | 29 | 1003.9 |
| 20260503183131 | 21 | 5 | 4.8 | 14.5 | 0.00 | 0.00 | 0.00 | 34 | 1003.9 |
| 20260503181544 | 20 | 5 | 3.2 | 12.9 | 0.00 | 0.00 | 0.00 | 35 | 1004.0 |
| 20260503180138 | 20 | 5 | 4.8 | 9.7 | 0.00 | 0.00 | 0.00 | 38 | 1004.2 |
| 20260503174552 | 20 | 5 | 4.8 | 9.7 | 0.00 | 0.00 | 0.00 | 38 | 1004.2 |
| 20260503173017 | 20 | 5 | 4.8 | 19.3 | 0.00 | 0.00 | 0.00 | 37 | 1004.3 |
| 20260503171612 | 20 | 5 | 3.2 | 14.5 | 0.00 | 0.00 | 0.00 | 39 | 1004.4 |
| 20260503160114 | 17 | 5 | 3.2 | 9.7 | 0.00 | 0.00 | 0.00 | 47 | 1004.4 |
| 20260503120107 | 7 | 5 | 0.0 | 3.2 | 0.00 | 0.00 | 0.00 | 73 | 1003.8 |
| 20260503081537 | 11 | 5 | 0.0 | 3.2 | 0.00 | 0.00 | 0.00 | 57 | 1004.6 |
| 20260503071623 | 12 | 5 | 3.2 | 4.8 | 0.00 | 0.00 | 0.00 | 53 | 1005.0 |